SIA935 WADD-WSSS
Flight info
| Callsign | SIA935 |
|---|---|
| Flight time | N/A |
| Altitude | 35000 |
| Route | BORGI1A BORGI DCT UDONO M635 SURGA T23 UGEBO UGEBO1B |
| Aircraft | B77W/H-SADE1E2E3GHIJ1J3J5M1P2RWXY/LB1D1 |
Departure
| Time | 2026-05-08 01:15 |
|---|---|
| Airport | Denpasar I Gusti Ngurah Rai International Airport (WADD) |
Arrival
| Time | N/A |
|---|---|
| Airport | Singapore Changi Airport (WSSS) |
| Time | Latitude | Longitude | Altitude | Speed | Heading |
|---|---|---|---|---|---|
| 2026-05-08 00:29 | -8.74565 | 115.16608 | 30 ft | 0 kts | 358° |
| 2026-05-08 01:05 | -8.74569 | 115.16608 | 30 ft | 2 kts | 358° |
| 2026-05-08 01:05 | -8.74581 | 115.16608 | 29 ft | 0 kts | 358° |
| 2026-05-08 01:06 | -8.74593 | 115.16608 | 29 ft | 2 kts | 354° |
| 2026-05-08 01:06 | -8.74608 | 115.16611 | 29 ft | 2 kts | 343° |
| 2026-05-08 01:06 | -8.74622 | 115.16616 | 29 ft | 2 kts | 335° |
| 2026-05-08 01:06 | -8.74635 | 115.16623 | 28 ft | 2 kts | 326° |
| 2026-05-08 01:07 | -8.74647 | 115.16632 | 28 ft | 2 kts | 318° |
| 2026-05-08 01:07 | -8.74657 | 115.16643 | 28 ft | 2 kts | 309° |
| 2026-05-08 01:07 | -8.74666 | 115.16655 | 27 ft | 2 kts | 301° |
| 2026-05-08 01:07 | -8.74673 | 115.16669 | 27 ft | 2 kts | 292° |
| 2026-05-08 01:08 | -8.74678 | 115.16682 | 27 ft | 2 kts | 284° |
| 2026-05-08 01:08 | -8.74681 | 115.16697 | 27 ft | 2 kts | 275° |
| 2026-05-08 01:08 | -8.74681 | 115.16710 | 27 ft | 0 kts | 268° |
| 2026-05-08 01:08 | -8.74681 | 115.16713 | 27 ft | 0 kts | 267° |
| 2026-05-08 01:10 | -8.74681 | 115.16708 | 27 ft | 2 kts | 267° |
| 2026-05-08 01:10 | -8.74683 | 115.16673 | 27 ft | 7 kts | 269° |
| 2026-05-08 01:10 | -8.74684 | 115.16605 | 27 ft | 12 kts | 268° |
| 2026-05-08 01:11 | -8.74687 | 115.16505 | 27 ft | 15 kts | 268° |
| 2026-05-08 01:11 | -8.74691 | 115.16399 | 27 ft | 14 kts | 268° |
| 2026-05-08 01:11 | -8.74695 | 115.16299 | 26 ft | 14 kts | 267° |
| 2026-05-08 01:11 | -8.74700 | 115.16197 | 24 ft | 14 kts | 267° |
| 2026-05-08 01:12 | -8.74705 | 115.16094 | 23 ft | 14 kts | 267° |
| 2026-05-08 01:12 | -8.74710 | 115.15988 | 22 ft | 15 kts | 267° |
| 2026-05-08 01:12 | -8.74715 | 115.15877 | 20 ft | 16 kts | 269° |
| 2026-05-08 01:12 | -8.74718 | 115.15755 | 18 ft | 18 kts | 269° |
| 2026-05-08 01:13 | -8.74722 | 115.15624 | 18 ft | 18 kts | 267° |
| 2026-05-08 01:13 | -8.74728 | 115.15502 | 18 ft | 15 kts | 267° |
| 2026-05-08 01:13 | -8.74763 | 115.15414 | 18 ft | 13 kts | 208° |
| 2026-05-08 01:13 | -8.74847 | 115.15400 | 18 ft | 10 kts | 182° |
| 2026-05-08 01:14 | -8.74894 | 115.15428 | 18 ft | 7 kts | 98° |
| 2026-05-08 01:14 | -8.74893 | 115.15464 | 19 ft | 0 kts | 88° |
| 2026-05-08 01:15 | -8.74892 | 115.15513 | 19 ft | 27 kts | 88° |
| 2026-05-08 01:15 | -8.74873 | 115.15986 | 22 ft | 105 kts | 88° |
| 2026-05-08 01:15 | -8.74830 | 115.16950 | 79 ft | 163 kts | 87° |
| 2026-05-08 01:15 | -8.74734 | 115.18127 | 782 ft | 168 kts | 86° |
| 2026-05-08 01:16 | -8.74712 | 115.19249 | 1678 ft | 164 kts | 88° |
| 2026-05-08 01:16 | -8.74681 | 115.20448 | 2190 ft | 182 kts | 86° |
| 2026-05-08 01:16 | -8.74626 | 115.21769 | 2753 ft | 198 kts | 87° |
| 2026-05-08 01:16 | -8.74567 | 115.23204 | 3356 ft | 215 kts | 87° |
| 2026-05-08 01:17 | -8.74503 | 115.24775 | 4005 ft | 232 kts | 87° |
| 2026-05-08 01:17 | -8.74435 | 115.26445 | 4680 ft | 249 kts | 88° |
| 2026-05-08 01:17 | -8.74363 | 115.28239 | 5445 ft | 263 kts | 87° |
| 2026-05-08 01:17 | -8.74288 | 115.30079 | 6410 ft | 267 kts | 87° |
| 2026-05-08 01:18 | -8.74211 | 115.31979 | 7315 ft | 274 kts | 87° |
| 2026-05-08 01:18 | -8.74132 | 115.33891 | 8189 ft | 279 kts | 87° |
| 2026-05-08 01:18 | -8.74051 | 115.35872 | 8808 ft | 285 kts | 87° |
| 2026-05-08 01:18 | -8.73968 | 115.37890 | 8977 ft | 287 kts | 87° |
| 2026-05-08 01:19 | -8.73887 | 115.39902 | 8992 ft | 286 kts | 87° |
| 2026-05-08 01:19 | -8.73804 | 115.41926 | 8990 ft | 286 kts | 87° |
| 2026-05-08 01:19 | -8.73723 | 115.43924 | 8992 ft | 286 kts | 87° |
| 2026-05-08 01:19 | -8.73639 | 115.45945 | 9000 ft | 286 kts | 87° |
| 2026-05-08 01:20 | -8.73557 | 115.47946 | 8996 ft | 287 kts | 87° |
| 2026-05-08 01:20 | -8.73360 | 115.49960 | 8999 ft | 287 kts | 73° |
| 2026-05-08 01:20 | -8.72453 | 115.51725 | 9006 ft | 287 kts | 52° |
| 2026-05-08 01:20 | -8.71128 | 115.53254 | 8998 ft | 287 kts | 46° |
| 2026-05-08 01:21 | -8.69732 | 115.54684 | 8990 ft | 288 kts | 45° |
| 2026-05-08 01:21 | -8.68294 | 115.56128 | 8983 ft | 288 kts | 45° |
| 2026-05-08 01:21 | -8.66872 | 115.57552 | 8981 ft | 288 kts | 45° |
| 2026-05-08 01:21 | -8.65446 | 115.58981 | 8979 ft | 289 kts | 45° |
| 2026-05-08 01:22 | -8.64019 | 115.60412 | 8976 ft | 288 kts | 45° |
| 2026-05-08 01:22 | -8.62582 | 115.61853 | 8975 ft | 289 kts | 45° |
| 2026-05-08 01:22 | -8.61166 | 115.63274 | 8973 ft | 289 kts | 45° |
| 2026-05-08 01:22 | -8.59728 | 115.64716 | 8971 ft | 289 kts | 45° |
| 2026-05-08 01:23 | -8.58292 | 115.66155 | 8971 ft | 289 kts | 45° |
| 2026-05-08 01:23 | -8.56859 | 115.67592 | 8969 ft | 289 kts | 44° |
| 2026-05-08 01:23 | -8.55246 | 115.68755 | 8983 ft | 289 kts | 22° |
| 2026-05-08 01:23 | -8.53237 | 115.69207 | 9149 ft | 304 kts | 5° |
| 2026-05-08 01:24 | -8.51140 | 115.69217 | 10270 ft | 300 kts | 355° |
| 2026-05-08 01:24 | -8.49073 | 115.68917 | 11022 ft | 310 kts | 347° |
| 2026-05-08 01:24 | -8.46946 | 115.68258 | 11611 ft | 326 kts | 337° |
| 2026-05-08 01:24 | -8.44886 | 115.67216 | 12184 ft | 342 kts | 327° |
| 2026-05-08 01:25 | -8.42924 | 115.65740 | 12788 ft | 356 kts | 316° |
| 2026-05-08 01:25 | -8.41230 | 115.63892 | 13408 ft | 367 kts | 306° |
| 2026-05-08 01:25 | -8.39866 | 115.61687 | 14068 ft | 377 kts | 295° |
| 2026-05-08 01:25 | -8.38919 | 115.59172 | 14717 ft | 387 kts | 284° |
| 2026-05-08 01:26 | -8.38473 | 115.56480 | 15285 ft | 399 kts | 273° |
| 2026-05-08 01:26 | -8.38579 | 115.53661 | 15877 ft | 409 kts | 261° |
| 2026-05-08 01:26 | -8.39255 | 115.50864 | 16600 ft | 414 kts | 251° |
| 2026-05-08 01:26 | -8.40475 | 115.48201 | 17320 ft | 420 kts | 240° |
| 2026-05-08 01:27 | -8.41865 | 115.45608 | 17959 ft | 425 kts | 245° |
| 2026-05-08 01:27 | -8.42959 | 115.42818 | 18585 ft | 430 kts | 252° |
| 2026-05-08 01:27 | -8.43748 | 115.39938 | 19278 ft | 433 kts | 257° |
| 2026-05-08 01:27 | -8.44349 | 115.36957 | 19993 ft | 435 kts | 259° |
| 2026-05-08 01:28 | -8.44805 | 115.33915 | 20675 ft | 438 kts | 262° |
| 2026-05-08 01:28 | -8.45143 | 115.30881 | 21333 ft | 441 kts | 263° |
| 2026-05-08 01:28 | -8.45414 | 115.27805 | 21974 ft | 445 kts | 264° |
| 2026-05-08 01:28 | -8.45642 | 115.24674 | 22601 ft | 448 kts | 265° |
| 2026-05-08 01:29 | -8.45832 | 115.21523 | 23192 ft | 451 kts | 265° |
| 2026-05-08 01:29 | -8.45998 | 115.18341 | 23757 ft | 455 kts | 266° |
| 2026-05-08 01:29 | -8.46145 | 115.15173 | 24276 ft | 460 kts | 266° |
| 2026-05-08 01:29 | -8.46282 | 115.11915 | 24785 ft | 464 kts | 266° |
| 2026-05-08 01:30 | -8.46252 | 115.08650 | 25261 ft | 469 kts | 273° |
| 2026-05-08 01:30 | -8.45772 | 115.05396 | 25743 ft | 474 kts | 281° |
| 2026-05-08 01:30 | -8.44824 | 115.02188 | 26215 ft | 479 kts | 289° |
| 2026-05-08 01:30 | -8.43427 | 114.99146 | 26705 ft | 483 kts | 297° |
| 2026-05-08 01:31 | -8.41571 | 114.96281 | 27191 ft | 488 kts | 306° |
| 2026-05-08 01:31 | -8.39323 | 114.93723 | 27635 ft | 493 kts | 314° |
| 2026-05-08 01:31 | -8.36699 | 114.91503 | 28077 ft | 498 kts | 322° |
| 2026-05-08 01:31 | -8.33718 | 114.89652 | 28515 ft | 503 kts | 330° |
| 2026-05-08 01:32 | -8.30615 | 114.88016 | 28918 ft | 506 kts | 330° |
| 2026-05-08 01:32 | -8.24403 | 114.84644 | 28971 ft | 502 kts | 329° |
| 2026-05-08 01:33 | -8.18301 | 114.81203 | 28968 ft | 502 kts | 328° |
| 2026-05-08 01:33 | -8.12157 | 114.77657 | 29565 ft | 511 kts | 328° |
| 2026-05-08 01:33 | -8.09099 | 114.75874 | 30542 ft | 503 kts | 328° |
| 2026-05-08 01:34 | -8.06124 | 114.74133 | 31556 ft | 494 kts | 328° |
| 2026-05-08 01:34 | -8.03160 | 114.72395 | 32372 ft | 489 kts | 328° |
| 2026-05-08 01:34 | -8.00247 | 114.70683 | 33037 ft | 488 kts | 328° |
| 2026-05-08 01:34 | -7.97306 | 114.68951 | 33628 ft | 488 kts | 328° |
| 2026-05-08 01:35 | -7.94350 | 114.67209 | 34247 ft | 487 kts | 328° |
| 2026-05-08 01:35 | -7.91456 | 114.65501 | 34825 ft | 487 kts | 328° |
| 2026-05-08 01:35 | -7.88509 | 114.63784 | 34885 ft | 489 kts | 329° |
| 2026-05-08 01:36 | -7.82512 | 114.60546 | 34895 ft | 485 kts | 330° |
| 2026-05-08 01:36 | -7.76532 | 114.57322 | 34893 ft | 485 kts | 330° |
| 2026-05-08 01:37 | -7.70490 | 114.54018 | 34906 ft | 484 kts | 326° |
| 2026-05-08 01:37 | -7.65376 | 114.49651 | 34919 ft | 482 kts | 308° |
| 2026-05-08 01:38 | -7.61880 | 114.43946 | 34919 ft | 481 kts | 291° |
| 2026-05-08 01:38 | -7.59428 | 114.37684 | 34898 ft | 480 kts | 289° |
| 2026-05-08 01:39 | -7.56546 | 114.31585 | 34876 ft | 481 kts | 302° |
| 2026-05-08 01:39 | -7.52114 | 114.26550 | 34871 ft | 484 kts | 319° |
| 2026-05-08 01:40 | -7.46670 | 114.22517 | 34895 ft | 484 kts | 323° |
| 2026-05-08 01:40 | -7.41211 | 114.18591 | 34899 ft | 484 kts | 323° |
| 2026-05-08 01:41 | -7.35725 | 114.14628 | 34902 ft | 483 kts | 323° |
| 2026-05-08 01:41 | -7.30243 | 114.10661 | 34897 ft | 483 kts | 322° |
| 2026-05-08 01:42 | -7.24786 | 114.06709 | 34895 ft | 483 kts | 322° |
| 2026-05-08 01:42 | -7.19318 | 114.02747 | 34888 ft | 484 kts | 323° |
| 2026-05-08 01:43 | -7.13839 | 113.98776 | 34878 ft | 485 kts | 322° |
| 2026-05-08 01:43 | -7.08351 | 113.94798 | 34871 ft | 484 kts | 323° |
| 2026-05-08 01:44 | -7.02870 | 113.90827 | 34878 ft | 484 kts | 323° |
| 2026-05-08 01:44 | -6.97406 | 113.86870 | 34877 ft | 484 kts | 323° |
| 2026-05-08 01:45 | -6.91938 | 113.82912 | 34877 ft | 483 kts | 323° |
| 2026-05-08 01:45 | -6.86497 | 113.78976 | 34876 ft | 484 kts | 323° |
| 2026-05-08 01:46 | -6.81016 | 113.75011 | 34873 ft | 484 kts | 323° |
| 2026-05-08 01:46 | -6.75545 | 113.71053 | 34868 ft | 484 kts | 322° |